Main page
METAR-TAF:

METAR-TAF

Airports :

Doha International Airport

Doha, Qatar

latitude: 25-15-40N, longitude: 051-33-54E, elevation: 11 m

Current weather observation

The report was made 43 minutes ago, at 15:00 UTC
Wind 10 kt from the North/Northeast
Temperature 29°C
Humidity 74%
Pressure 1006 hPa
Visibility: 6000 m

METAR: OTBD 201500Z 02010KT 6000 NSC 29/24 Q1006 NOSIG

Time: 18:43 (15:43 UTC)

Forecast

The report was made 4 hours and 40 minutes ago, at 11:03 UTC
Forecast valid from 20 at 12 UTC to 21 at 18 UTC
Wind 12 kt from the Northeast
Visibility: 8000 m
Temporary
from 20 at 16 UTC to 20 at 21 UTC
Few clouds at a height of 3500 ft
Scattered clouds at a height of 14000 ft
light rain
Temporary
from 20 at 19 UTC to 21 at 04 UTC
Wind 3 kt from variable directions

TAF: OTBD 201103Z 2012/2118 04012KT 8000 NSC TEMPO 2016/2021 -RA FEW035 SCT140 TEMPO 2019/2104 VRB03KT

Weather observations and forecasts of more than 4000 airports (METAR and TAF reports).

The available stations are represented by yellow and red dots on the map.

Hover mouse over dot to see the name of the station.

Then click to see weather observations and forecasts.

To change the map : click on the green buttons with a black cross to zoom in, on the green button with a dash to zoom out, or on the green arrows for adjacent maps.


METAR-TAF: